Archival Weather

Snohomish County (Paine Fld)

Everett, Washington (KPAE)

Report from: Sunday, November 5, 2023 2:05 AM PST
Current time: Monday, June 24, 2024 2:24 AM PDT

Current weather – Weather history – Daily summaries
Weather forecast

Temperature11.7°C (53.1°F)
Dew point8.9°C (48.0°F)
Winds 14 kts (7.2 m/s, 16.1 mph) South-Southeast (160°)
Wind gusts 18 kts (9.3 m/s, 20.7 mph)
Visibility10 mi. (16.1 km)
Clouds Scattered clouds 1,200 ft. (366 m)
Altimeter29.85 in.Hg (1011 mB)
Relative humidity83 %
Density altitude-149 ft. (-45 m)
Remarks Fully automated report
Automated weather observing station with precipitation discriminator
Flight conditions Visual Meteorological Conditions
Raw dataKPAE 051005Z AUTO 16014G18KT 10SM SCT012 12/09 A2985 RMK AO2 T01170089
An error has occurred. This application may no longer respond until reloaded. Reload 🗙